Strona główna
METAR-TAF:

METAR-TAF

Lotnisko :

Port lotniczy Irkuck

Irkuck, Rosja

Szerokość geograficzna: 52-16N, Długość geograficzna: 104-19E, wysokość: 513 m

Aktualna obserwacja pogody

Raport powstał 40 minut temu, godzina 08:00 UTC
Wiatr 8 kt od południe, zmienny między południowy wschód i południowo-południowy zachód
Temperatura 16°C
Wilgotność 25%
Ciśnienie 1013 hPa
Widzialność 10 km lub więcej
Brak chmur poniżej 1500 m i brak chmur cumulonimbus

METAR: UIII 250800Z 18004MPS 130V210 CAVOK 16/M04 Q1013 R12/60D NOSIG RMK QFE717/0956

czas: 16:40 (08:40 UTC)

Prognoza

Raport powstał 40 minut temu, godzina 08:00 UTC
Prognoza ważna od 25 godzina 09 UTC do 26 godzina 09 UTC
Wiatr 10 kt od południowo-południowy wschód
Widzialność 10 km lub więcej
Brak chmur poniżej 1500 m i brak chmur cumulonimbus

TAF: UIII 250800Z 2509/2609 16005MPS CAVOK

Obserwacja i prognoza pogody dla ponad 4000 lotnisk (raport METAR i TAF).

Dostępne stacje oznaczono żółtymi i czerwonymi punktami na mapie.

Najedź kursorem aby zobaczyć nazwę stacji.

Kliknij aby zobaczyć obserwacje i prognozy pogody.

Aby zmienić mapę: kliknij na zielony przycisk z czarnym krzyżykiem, aby powiększyć; na zielony przycisk z myślnikiem, aby pomniejszyć; na zielone strzałki, aby przejść do map sąsiednich.


METAR-TAF: